Time;durP1;ratioP1;P1;durP2;ratioP2;P2;SDS_P1;SDS_P2;PMS_P1;PMS_P2;Temp;Humidity;BMP_temperature;BMP_pressure;BME280_temperature;BME280_humidity;BME280_pressure;Samples;Min_cycle;Max_cycle;Signal;HPM_P1;HPM_P2
2021/07/15 00:00:23;;;;;;;7.50;3.38;;;;;;;;;;5034762;28;20032;-84
2021/07/15 00:02:49;;;;;;;12.50;3.90;;;;;;;;;;5034956;28;20064;-83
2021/07/15 00:05:15;;;;;;;7.43;4.65;;;;;;;;;;5034360;28;20037;-83
2021/07/15 00:07:42;;;;;;;6.63;3.33;;;;;;;;;;5034882;28;20047;-85
2021/07/15 00:10:27;;;;;;;6.35;3.85;;;;;;;;;;5034782;28;20038;-83
2021/07/15 00:12:53;;;;;;;5.95;2.92;;;;;;;;;;5033570;28;20053;-83
2021/07/15 00:15:22;;;;;;;5.20;2.90;;;;;;;;;;5033170;28;20076;-83
2021/07/15 00:17:48;;;;;;;7.85;3.10;;;;;;;;;;5034443;28;20025;-83
2021/07/15 00:20:15;;;;;;;6.15;3.50;;;;;;;;;;5034513;28;20373;-83
2021/07/15 00:22:42;;;;;;;8.50;3.58;;;;;;;;;;5034642;28;20108;-83
2021/07/15 00:25:10;;;;;;;8.65;3.47;;;;;;;;;;5034206;28;20113;-83
2021/07/15 00:27:39;;;;;;;6.15;2.75;;;;;;;;;;5034295;28;20523;-87
2021/07/15 00:30:06;;;;;;;6.30;2.67;;;;;;;;;;5034514;28;20080;-84
2021/07/15 00:32:31;;;;;;;5.97;3.53;;;;;;;;;;5034152;28;20055;-84
2021/07/15 00:34:57;;;;;;;6.13;2.95;;;;;;;;;;5034227;28;20053;-83
2021/07/15 00:37:23;;;;;;;7.05;3.17;;;;;;;;;;5034384;28;20100;-83
2021/07/15 00:39:49;;;;;;;7.57;3.20;;;;;;;;;;5035656;28;20479;-83
2021/07/15 00:42:14;;;;;;;5.95;3.15;;;;;;;;;;5035801;28;20021;-84
2021/07/15 00:44:40;;;;;;;5.05;2.72;;;;;;;;;;5035091;28;20033;-83
2021/07/15 00:47:06;;;;;;;10.05;2.85;;;;;;;;;;5034518;28;20029;-83
2021/07/15 00:49:32;;;;;;;6.18;3.08;;;;;;;;;;5033519;28;20036;-83
2021/07/15 00:51:57;;;;;;;6.28;3.03;;;;;;;;;;5034334;28;20037;-88
2021/07/15 00:54:23;;;;;;;5.72;3.00;;;;;;;;;;5034206;28;20025;-84
2021/07/15 00:56:49;;;;;;;6.15;3.05;;;;;;;;;;5033991;28;20477;-83
2021/07/15 00:59:20;;;;;;;5.22;3.08;;;;;;;;;;5032519;28;20021;-83
2021/07/15 01:01:46;;;;;;;5.60;2.83;;;;;;;;;;5032466;28;20053;-83
2021/07/15 01:04:12;;;;;;;5.45;3.05;;;;;;;;;;5032233;28;20037;-83
2021/07/15 01:06:37;;;;;;;6.68;3.25;;;;;;;;;;5032231;28;20033;-83
2021/07/15 01:09:04;;;;;;;6.05;3.88;;;;;;;;;;5033653;28;20071;-83
2021/07/15 01:11:48;;;;;;;7.95;3.47;;;;;;;;;;5032432;28;20033;-90
2021/07/15 01:14:26;;;;;;;7.18;3.95;;;;;;;;;;5032321;28;20030;-83
2021/07/15 01:17:11;;;;;;;6.03;3.75;;;;;;;;;;5033792;28;20025;-83
2021/07/15 01:19:37;;;;;;;7.45;3.97;;;;;;;;;;5033849;28;20030;-83
2021/07/15 01:22:20;;;;;;;5.88;3.08;;;;;;;;;;5032448;28;20192;-83
2021/07/15 01:25:09;;;;;;;6.40;3.20;;;;;;;;;;5033544;28;20075;-83
2021/07/15 01:27:58;;;;;;;7.90;3.25;;;;;;;;;;5033578;28;20489;-83
2021/07/15 01:30:32;;;;;;;7.65;3.35;;;;;;;;;;5033305;28;20381;-82
2021/07/15 01:33:08;;;;;;;9.93;3.78;;;;;;;;;;5033715;28;20446;-87
2021/07/15 01:35:43;;;;;;;7.93;3.25;;;;;;;;;;5033663;28;20049;-83
2021/07/15 01:38:11;;;;;;;7.00;3.67;;;;;;;;;;5033614;28;20062;-83
2021/07/15 01:40:46;;;;;;;6.45;3.38;;;;;;;;;;5033594;28;20390;-83
2021/07/15 01:43:18;;;;;;;6.53;3.63;;;;;;;;;;5032102;28;20025;-83
2021/07/15 01:45:44;;;;;;;7.82;3.33;;;;;;;;;;5033205;28;20022;-83
2021/07/15 01:48:12;;;;;;;9.95;3.85;;;;;;;;;;5033335;28;20040;-83
2021/07/15 01:50:38;;;;;;;7.82;3.10;;;;;;;;;;5033429;28;20096;-83
2021/07/15 01:53:05;;;;;;;10.10;3.40;;;;;;;;;;5031895;28;20075;-86
2021/07/15 01:55:30;;;;;;;7.13;2.90;;;;;;;;;;5033666;28;20057;-87
2021/07/15 01:57:58;;;;;;;8.07;3.05;;;;;;;;;;5031855;28;20060;-83
2021/07/15 02:00:24;;;;;;;6.78;3.03;;;;;;;;;;5033127;28;20025;-83
2021/07/15 02:02:52;;;;;;;5.20;2.67;;;;;;;;;;5031830;28;20021;-83
2021/07/15 02:05:18;;;;;;;6.72;3.10;;;;;;;;;;5032730;28;20045;-83
2021/07/15 02:07:45;;;;;;;8.23;3.15;;;;;;;;;;5033198;28;20485;-85
2021/07/15 02:10:16;;;;;;;6.65;3.90;;;;;;;;;;5033185;28;20057;-83
2021/07/15 02:12:42;;;;;;;6.13;3.05;;;;;;;;;;5033445;28;20036;-83
2021/07/15 02:15:08;;;;;;;7.15;3.35;;;;;;;;;;5032997;28;20097;-87
2021/07/15 02:17:41;;;;;;;5.28;2.95;;;;;;;;;;5033421;28;20120;-83
2021/07/15 02:20:11;;;;;;;7.03;3.40;;;;;;;;;;5033005;28;20068;-83
2021/07/15 02:22:38;;;;;;;7.80;3.13;;;;;;;;;;5033242;28;20038;-86
2021/07/15 02:25:06;;;;;;;6.40;3.60;;;;;;;;;;5033329;28;20064;-83
2021/07/15 02:27:33;;;;;;;6.93;3.20;;;;;;;;;;5035612;28;20392;-84
2021/07/15 02:29:58;;;;;;;6.93;3.25;;;;;;;;;;5035609;28;20029;-83
2021/07/15 02:32:24;;;;;;;6.43;3.38;;;;;;;;;;5035149;28;20026;-84
2021/07/15 02:35:01;;;;;;;5.25;2.97;;;;;;;;;;5036414;28;20032;-84
2021/07/15 02:37:32;;;;;;;6.22;3.22;;;;;;;;;;5035081;28;20032;-83
2021/07/15 02:39:58;;;;;;;6.38;2.83;;;;;;;;;;5035080;28;20041;-82
2021/07/15 02:42:24;;;;;;;5.53;3.00;;;;;;;;;;5034992;28;20136;-82
2021/07/15 02:44:50;;;;;;;5.70;2.88;;;;;;;;;;5036194;28;20026;-83
2021/07/15 02:47:16;;;;;;;6.78;2.65;;;;;;;;;;5035408;28;20033;-83
2021/07/15 02:49:43;;;;;;;6.82;2.35;;;;;;;;;;5036131;28;20500;-83
2021/07/15 02:52:10;;;;;;;6.78;2.42;;;;;;;;;;5034860;28;20040;-83
2021/07/15 02:54:38;;;;;;;5.07;2.80;;;;;;;;;;5034754;28;20030;-83
2021/07/15 02:57:22;;;;;;;5.60;2.55;;;;;;;;;;5034660;28;20025;-82
2021/07/15 03:00:14;;;;;;;8.07;3.25;;;;;;;;;;5036488;28;20380;-83
2021/07/15 03:02:49;;;;;;;7.90;2.72;;;;;;;;;;5035991;28;20092;-82
2021/07/15 03:05:34;;;;;;;5.95;3.33;;;;;;;;;;5034324;28;20050;-87
2021/07/15 03:08:06;;;;;;;7.32;2.83;;;;;;;;;;5036079;28;20022;-84
2021/07/15 03:10:34;;;;;;;6.53;3.03;;;;;;;;;;5034557;28;20065;-83
2021/07/15 03:13:00;;;;;;;5.60;2.85;;;;;;;;;;5034400;28;20036;-83
2021/07/15 03:15:27;;;;;;;7.05;2.67;;;;;;;;;;5035803;28;20064;-83
2021/07/15 03:17:54;;;;;;;9.93;2.53;;;;;;;;;;5035646;28;20026;-84
2021/07/15 03:20:33;;;;;;;7.03;2.53;;;;;;;;;;5034315;28;20087;-83
2021/07/15 03:23:05;;;;;;;6.20;2.78;;;;;;;;;;5035547;28;20531;-82
2021/07/15 03:25:32;;;;;;;6.25;2.45;;;;;;;;;;5035476;28;20057;-83
2021/07/15 03:27:58;;;;;;;4.85;2.78;;;;;;;;;;5035414;28;20021;-83
2021/07/15 03:30:26;;;;;;;6.63;5.57;;;;;;;;;;5035364;28;20021;-83
2021/07/15 03:32:53;;;;;;;5.00;2.47;;;;;;;;;;5034102;28;20026;-83
2021/07/15 03:35:19;;;;;;;8.35;2.70;;;;;;;;;;5034948;28;20045;-83
2021/07/15 03:37:47;;;;;;;6.05;2.72;;;;;;;;;;5035308;28;20101;-84
2021/07/15 03:40:21;;;;;;;6.95;3.05;;;;;;;;;;5035428;28;20109;-82
2021/07/15 03:42:48;;;;;;;5.78;2.90;;;;;;;;;;5035144;28;20032;-83
2021/07/15 03:45:16;;;;;;;6.43;4.50;;;;;;;;;;5034949;28;20481;-83
2021/07/15 03:47:43;;;;;;;6.65;3.28;;;;;;;;;;5035446;28;20032;-83
2021/07/15 03:50:10;;;;;;;7.55;3.85;;;;;;;;;;5033663;28;20103;-83
2021/07/15 03:52:38;;;;;;;5.82;2.95;;;;;;;;;;5034805;28;20025;-83
2021/07/15 03:55:06;;;;;;;6.40;2.90;;;;;;;;;;5034884;28;20032;-82
2021/07/15 03:57:33;;;;;;;6.45;3.30;;;;;;;;;;5034789;28;20029;-83
2021/07/15 04:00:00;;;;;;;8.00;3.55;;;;;;;;;;5034972;28;20026;-84
2021/07/15 04:02:27;;;;;;;8.45;5.68;;;;;;;;;;5034830;28;20048;-83
2021/07/15 04:04:56;;;;;;;8.07;3.05;;;;;;;;;;5034561;28;20042;-87
2021/07/15 04:07:25;;;;;;;5.60;3.00;;;;;;;;;;5034602;28;20108;-87
2021/07/15 04:09:51;;;;;;;8.65;2.72;;;;;;;;;;5034600;28;20029;-83
2021/07/15 04:12:22;;;;;;;6.40;3.05;;;;;;;;;;5033552;28;20032;-83
2021/07/15 04:15:16;;;;;;;5.53;2.80;;;;;;;;;;5034548;28;20104;-83
2021/07/15 04:18:03;;;;;;;6.57;2.97;;;;;;;;;;5034631;28;20040;-85
2021/07/15 04:20:30;;;;;;;5.72;2.35;;;;;;;;;;5034752;28;20045;-83
2021/07/15 04:23:00;;;;;;;6.13;3.28;;;;;;;;;;5033406;28;20448;-83
2021/07/15 04:25:27;;;;;;;5.68;2.70;;;;;;;;;;5032861;28;20025;-84
2021/07/15 04:27:57;;;;;;;7.80;2.85;;;;;;;;;;5034370;28;20030;-83
2021/07/15 04:30:23;;;;;;;4.82;2.85;;;;;;;;;;5033302;28;20029;-83
2021/07/15 04:32:55;;;;;;;7.72;2.38;;;;;;;;;;5033336;28;20036;-84
2021/07/15 04:35:22;;;;;;;5.38;2.80;;;;;;;;;;5034232;28;20052;-85
2021/07/15 04:37:50;;;;;;;5.80;2.95;;;;;;;;;;5035374;28;20539;-85
2021/07/15 04:40:18;;;;;;;4.75;2.28;;;;;;;;;;5036581;28;20029;-87
2021/07/15 04:42:47;;;;;;;7.50;2.95;;;;;;;;;;5032691;28;20230;-85
2021/07/15 04:45:15;;;;;;;6.85;2.20;;;;;;;;;;5032346;28;20030;-83
2021/07/15 04:47:43;;;;;;;4.05;2.00;;;;;;;;;;5032024;28;20036;-84
2021/07/15 04:50:21;;;;;;;4.53;2.35;;;;;;;;;;5032613;28;20071;-87
2021/07/15 04:52:51;;;;;;;6.68;2.20;;;;;;;;;;5032853;28;20027;-83
2021/07/15 04:55:20;;;;;;;4.15;1.90;;;;;;;;;;5034926;28;20638;-84
2021/07/15 04:57:48;;;;;;;4.55;1.95;;;;;;;;;;5036513;28;20036;-83
2021/07/15 05:00:15;;;;;;;6.47;2.03;;;;;;;;;;5036849;28;20473;-84
2021/07/15 05:02:41;;;;;;;5.18;2.05;;;;;;;;;;5034440;28;20611;-83
2021/07/15 05:05:09;;;;;;;6.90;5.70;;;;;;;;;;5034594;28;20092;-84
2021/07/15 05:07:37;;;;;;;5.60;2.83;;;;;;;;;;5033979;28;20060;-84
2021/07/15 05:10:08;;;;;;;4.82;2.17;;;;;;;;;;5033736;28;20063;-84
2021/07/15 05:12:36;;;;;;;4.47;1.90;;;;;;;;;;5033767;28;20109;-85
2021/07/15 05:15:08;;;;;;;5.10;2.38;;;;;;;;;;5033636;28;20100;-84
2021/07/15 05:17:34;;;;;;;5.63;1.80;;;;;;;;;;5033587;28;20035;-84
2021/07/15 05:20:00;;;;;;;5.22;2.00;;;;;;;;;;5033541;28;20022;-83
2021/07/15 05:22:26;;;;;;;4.15;2.45;;;;;;;;;;5033479;28;20044;-84
2021/07/15 05:24:52;;;;;;;3.83;2.05;;;;;;;;;;5033587;28;20461;-85
2021/07/15 05:27:18;;;;;;;4.40;1.75;;;;;;;;;;5033357;28;20033;-86
2021/07/15 05:29:43;;;;;;;8.10;2.92;;;;;;;;;;5033365;28;20446;-85
2021/07/15 05:32:09;;;;;;;7.38;2.63;;;;;;;;;;5033387;28;20393;-85
2021/07/15 05:34:36;;;;;;;5.75;1.75;;;;;;;;;;5033338;28;20026;-84
2021/07/15 05:37:03;;;;;;;4.63;2.28;;;;;;;;;;5033348;28;20032;-87
2021/07/15 05:39:29;;;;;;;6.47;2.38;;;;;;;;;;5033377;28;20096;-84
2021/07/15 05:41:54;;;;;;;5.18;1.80;;;;;;;;;;5032068;28;20107;-84
2021/07/15 05:44:20;;;;;;;5.38;2.40;;;;;;;;;;5033289;28;20026;-85
2021/07/15 05:46:46;;;;;;;4.80;1.92;;;;;;;;;;5031792;28;20037;-85
2021/07/15 05:49:11;;;;;;;5.75;1.65;;;;;;;;;;5033313;28;20049;-84
2021/07/15 05:51:37;;;;;;;4.40;1.92;;;;;;;;;;5033570;28;20473;-88
2021/07/15 05:54:03;;;;;;;3.58;1.60;;;;;;;;;;5033187;28;20060;-86
2021/07/15 05:56:29;;;;;;;3.65;1.50;;;;;;;;;;5031859;28;20481;-84
2021/07/15 05:58:55;;;;;;;4.10;1.30;;;;;;;;;;5034132;28;20025;-85
2021/07/15 06:01:21;;;;;;;4.55;0.75;;;;;;;;;;5037126;28;20025;-84
2021/07/15 06:03:47;;;;;;;7.45;4.72;;;;;;;;;;5037168;28;20163;-87
2021/07/15 06:06:13;;;;;;;5.20;1.75;;;;;;;;;;5036716;28;20401;-84
2021/07/15 06:08:39;;;;;;;3.42;1.15;;;;;;;;;;5036708;28;20021;-84
2021/07/15 06:11:04;;;;;;;13.73;4.75;;;;;;;;;;5036855;28;20033;-90
2021/07/15 06:13:30;;;;;;;3.20;1.33;;;;;;;;;;5037006;28;20049;-84
2021/07/15 06:15:56;;;;;;;3.60;1.30;;;;;;;;;;5036790;28;20030;-85
2021/07/15 06:18:21;;;;;;;7.95;1.55;;;;;;;;;;5036541;28;20022;-84
2021/07/15 06:20:47;;;;;;;6.80;3.72;;;;;;;;;;5036701;28;20148;-84
2021/07/15 06:23:12;;;;;;;2.67;1.25;;;;;;;;;;5035377;28;20396;-84
2021/07/15 06:25:38;;;;;;;4.32;3.75;;;;;;;;;;5036431;28;20021;-86
2021/07/15 06:28:04;;;;;;;4.85;4.35;;;;;;;;;;5036636;28;20109;-90
2021/07/15 06:30:30;;;;;;;9.13;4.78;;;;;;;;;;5036534;28;20031;-85
2021/07/15 06:32:57;;;;;;;5.50;4.22;;;;;;;;;;5036382;28;20018;-88
2021/07/15 06:35:23;;;;;;;7.15;4.25;;;;;;;;;;5036488;28;20030;-86
2021/07/15 06:37:52;;;;;;;7.20;5.05;;;;;;;;;;5037055;28;20045;-87
2021/07/15 06:40:18;;;;;;;7.10;4.53;;;;;;;;;;5037157;28;20053;-85
2021/07/15 06:42:45;;;;;;;4.57;2.08;;;;;;;;;;5036581;28;20125;-86
2021/07/15 06:45:11;;;;;;;5.38;3.58;;;;;;;;;;5035025;28;20026;-87
2021/07/15 06:47:37;;;;;;;5.68;3.80;;;;;;;;;;5036094;28;20108;-84
2021/07/15 06:50:05;;;;;;;4.55;3.50;;;;;;;;;;5035283;28;20111;-85
2021/07/15 06:52:31;;;;;;;4.25;3.53;;;;;;;;;;5036181;28;20033;-84
2021/07/15 06:55:00;;;;;;;6.05;1.10;;;;;;;;;;5034715;28;20474;-85
2021/07/15 06:57:26;;;;;;;5.18;3.42;;;;;;;;;;5036140;28;20025;-88
2021/07/15 06:59:52;;;;;;;6.60;0.98;;;;;;;;;;5034641;28;20033;-84
2021/07/15 07:02:17;;;;;;;3.45;1.17;;;;;;;;;;5034699;28;20036;-85
2021/07/15 07:04:43;;;;;;;3.80;1.38;;;;;;;;;;5035886;28;20041;-85
2021/07/15 07:07:09;;;;;;;3.65;2.83;;;;;;;;;;5036096;28;20029;-88
2021/07/15 07:09:34;;;;;;;7.07;3.67;;;;;;;;;;5036157;28;20029;-84
2021/07/15 07:12:00;;;;;;;4.70;1.00;;;;;;;;;;5033818;28;20444;-84
2021/07/15 07:14:26;;;;;;;3.47;1.48;;;;;;;;;;5035640;28;20408;-84
2021/07/15 07:16:51;;;;;;;5.75;1.23;;;;;;;;;;5035753;28;20470;-91
2021/07/15 07:19:17;;;;;;;4.57;3.97;;;;;;;;;;5035603;28;20053;-85
2021/07/15 07:21:43;;;;;;;6.53;3.90;;;;;;;;;;5035083;28;20033;-86
2021/07/15 07:24:08;;;;;;;6.15;3.70;;;;;;;;;;5034832;28;20030;-84
2021/07/15 07:26:34;;;;;;;4.20;1.27;;;;;;;;;;5035436;28;20362;-84
2021/07/15 07:29:00;;;;;;;4.78;1.10;;;;;;;;;;5034159;28;20021;-84
2021/07/15 07:31:27;;;;;;;5.65;3.58;;;;;;;;;;5035410;28;20100;-85
2021/07/15 07:33:53;;;;;;;3.58;1.10;;;;;;;;;;5034133;28;20033;-84
2021/07/15 07:36:19;;;;;;;4.85;1.30;;;;;;;;;;5035267;28;20017;-91
2021/07/15 07:38:45;;;;;;;6.15;3.50;;;;;;;;;;5035276;28;20033;-86
2021/07/15 07:41:11;;;;;;;3.85;1.00;;;;;;;;;;5035128;28;20483;-84
2021/07/15 07:43:37;;;;;;;3.47;1.02;;;;;;;;;;5035087;28;20035;-85
2021/07/15 07:46:04;;;;;;;4.20;3.30;;;;;;;;;;5034988;28;20025;-89
2021/07/15 07:48:29;;;;;;;4.18;3.25;;;;;;;;;;5035297;28;20036;-90
2021/07/15 07:50:58;;;;;;;3.72;3.30;;;;;;;;;;5034932;28;20025;-86
2021/07/15 07:53:27;;;;;;;2.85;0.82;;;;;;;;;;5035113;28;20026;-86
2021/07/15 07:55:54;;;;;;;4.85;3.22;;;;;;;;;;5034935;28;20047;-89
2021/07/15 07:58:21;;;;;;;2.97;0.85;;;;;;;;;;5035017;28;20071;-86
2021/07/15 08:00:51;;;;;;;6.72;3.13;;;;;;;;;;5035808;28;20033;-86
2021/07/15 08:03:17;;;;;;;5.22;3.30;;;;;;;;;;5033749;28;20056;-85
2021/07/15 08:05:45;;;;;;;2.67;0.68;;;;;;;;;;5036112;28;20363;-86
2021/07/15 08:08:11;;;;;;;3.03;0.55;;;;;;;;;;5034750;28;20026;-85
2021/07/15 08:10:38;;;;;;;3.65;0.80;;;;;;;;;;5034643;28;20033;-86
2021/07/15 08:13:04;;;;;;;4.38;2.40;;;;;;;;;;5034731;28;20025;-87
2021/07/15 08:15:30;;;;;;;3.55;2.80;;;;;;;;;;5034562;28;20100;-85
2021/07/15 08:17:57;;;;;;;5.35;3.47;;;;;;;;;;5033564;28;20060;-86
2021/07/15 08:20:23;;;;;;;3.25;0.88;;;;;;;;;;5034565;28;20026;-91
2021/07/15 08:22:48;;;;;;;4.43;2.75;;;;;;;;;;5039276;28;20029;-86
2021/07/15 08:25:14;;;;;;;2.85;0.80;;;;;;;;;;5034500;28;20044;-86
2021/07/15 08:27:40;;;;;;;3.90;2.72;;;;;;;;;;5033339;28;20091;-86
2021/07/15 08:30:08;;;;;;;2.75;1.27;;;;;;;;;;5034367;28;20033;-85
2021/07/15 08:32:37;;;;;;;6.28;2.55;;;;;;;;;;5034877;28;20163;-89
2021/07/15 08:35:04;;;;;;;5.97;2.72;;;;;;;;;;5035297;28;20044;-86
2021/07/15 08:37:29;;;;;;;3.47;0.63;;;;;;;;;;5034190;28;20469;-86
2021/07/15 08:39:55;;;;;;;5.40;2.42;;;;;;;;;;5034120;28;20028;-86
2021/07/15 08:42:22;;;;;;;5.38;0.75;;;;;;;;;;5032837;28;20029;-85
2021/07/15 08:44:48;;;;;;;3.35;0.75;;;;;;;;;;5034073;28;20029;-89
2021/07/15 08:47:15;;;;;;;4.80;0.80;;;;;;;;;;5036205;28;20374;-87
2021/07/15 08:49:41;;;;;;;4.03;2.92;;;;;;;;;;5034766;28;20025;-86
2021/07/15 08:52:07;;;;;;;3.55;2.75;;;;;;;;;;5036660;28;20060;-85
2021/07/15 08:57:17;;;;;;;2.42;0.57;;;;;;;;;;5033933;28;20040;-86
2021/07/15 08:59:42;;;;;;;3.35;1.10;;;;;;;;;;5033589;28;20030;-85
2021/07/15 09:02:14;;;;;;;7.25;3.53;;;;;;;;;;5034991;28;20104;-91
2021/07/15 09:04:40;;;;;;;6.68;4.28;;;;;;;;;;5035319;28;20127;-86
2021/07/15 09:07:05;;;;;;;5.22;3.60;;;;;;;;;;5034177;28;20489;-86
2021/07/15 09:09:31;;;;;;;5.25;3.47;;;;;;;;;;5034452;28;20531;-86
2021/07/15 09:11:57;;;;;;;5.55;3.38;;;;;;;;;;5035650;28;20060;-86
2021/07/15 09:14:22;;;;;;;5.97;2.67;;;;;;;;;;5036637;28;20064;-86
2021/07/15 09:16:54;;;;;;;4.07;3.00;;;;;;;;;;5034550;28;20034;-86
2021/07/15 09:19:23;;;;;;;3.97;2.33;;;;;;;;;;5033150;28;20440;-85
2021/07/15 09:21:49;;;;;;;6.60;2.45;;;;;;;;;;5032687;28;20120;-86
2021/07/15 09:24:32;;;;;;;3.97;2.55;;;;;;;;;;5032453;28;20508;-86
2021/07/15 09:27:09;;;;;;;6.53;3.35;;;;;;;;;;5033993;28;20488;-86
2021/07/15 09:29:34;;;;;;;7.70;1.02;;;;;;;;;;5033492;28;20060;-85
2021/07/15 09:32:00;;;;;;;6.93;2.80;;;;;;;;;;5033461;28;20053;-86
2021/07/15 09:34:31;;;;;;;7.60;5.18;;;;;;;;;;5035211;28;20033;-87
2021/07/15 09:36:58;;;;;;;6.18;2.28;;;;;;;;;;5037575;28;20026;-85
2021/07/15 09:39:27;;;;;;;4.55;2.97;;;;;;;;;;5037674;28;20477;-86
2021/07/15 09:42:04;;;;;;;4.93;2.90;;;;;;;;;;5037450;28;20469;-89
2021/07/15 09:44:35;;;;;;;9.55;4.65;;;;;;;;;;5038054;28;20025;-87
2021/07/15 09:47:02;;;;;;;4.95;2.63;;;;;;;;;;5037383;28;20033;-85
2021/07/15 09:49:35;;;;;;;16.38;8.50;;;;;;;;;;5037268;28;20117;-89
2021/07/15 09:52:01;;;;;;;8.85;4.13;;;;;;;;;;5036261;28;20040;-88
2021/07/15 09:54:29;;;;;;;5.38;1.05;;;;;;;;;;5036652;28;20025;-87
2021/07/15 09:56:55;;;;;;;6.10;2.30;;;;;;;;;;5037096;28;20037;-86
2021/07/15 09:59:21;;;;;;;5.68;1.98;;;;;;;;;;5037288;28;20022;-86
2021/07/15 10:01:52;;;;;;;3.53;2.78;;;;;;;;;;5035901;28;20026;-86
2021/07/15 10:04:27;;;;;;;3.75;2.28;;;;;;;;;;5036747;28;20046;-87
2021/07/15 10:06:59;;;;;;;3.55;2.38;;;;;;;;;;5036117;28;20388;-87
2021/07/15 10:09:29;;;;;;;4.68;2.65;;;;;;;;;;5037117;28;20018;-88
2021/07/15 10:11:58;;;;;;;2.38;0.80;;;;;;;;;;5035937;28;20362;-89
2021/07/15 10:14:41;;;;;;;4.15;2.40;;;;;;;;;;5036888;28;20104;-86
2021/07/15 10:17:07;;;;;;;3.40;2.22;;;;;;;;;;5035572;28;20072;-86
2021/07/15 10:19:33;;;;;;;4.63;2.80;;;;;;;;;;5035491;28;20033;-88
2021/07/15 10:22:08;;;;;;;3.50;1.85;;;;;;;;;;5036738;28;20025;-85
2021/07/15 10:24:34;;;;;;;4.38;0.82;;;;;;;;;;5037139;28;20026;-84
2021/07/15 10:27:04;;;;;;;4.55;3.28;;;;;;;;;;5036615;28;20491;-86
2021/07/15 10:29:32;;;;;;;6.13;2.63;;;;;;;;;;5035297;28;20021;-86
2021/07/15 10:31:57;;;;;;;5.53;2.38;;;;;;;;;;5036679;28;20079;-86
2021/07/15 10:34:25;;;;;;;2.47;0.55;;;;;;;;;;5036538;28;20408;-85
2021/07/15 10:36:57;;;;;;;2.83;1.95;;;;;;;;;;5036416;28;20112;-85
2021/07/15 10:39:26;;;;;;;3.22;2.53;;;;;;;;;;5036456;28;20028;-86
2021/07/15 10:41:57;;;;;;;4.22;2.53;;;;;;;;;;5036359;28;20026;-85
2021/07/15 10:44:25;;;;;;;4.20;2.08;;;;;;;;;;5036350;28;20076;-86
2021/07/15 10:46:52;;;;;;;4.63;2.97;;;;;;;;;;5035110;28;20075;-85
2021/07/15 10:49:20;;;;;;;3.88;2.65;;;;;;;;;;5036559;28;20032;-85
2021/07/15 10:51:47;;;;;;;4.50;2.08;;;;;;;;;;5036630;28;20021;-86
2021/07/15 10:54:15;;;;;;;7.97;2.38;;;;;;;;;;5036569;28;20033;-86
2021/07/15 10:56:43;;;;;;;5.00;2.92;;;;;;;;;;5036144;28;20044;-87
2021/07/15 10:59:23;;;;;;;4.28;3.40;;;;;;;;;;5036210;28;20476;-85
2021/07/15 11:01:49;;;;;;;6.30;1.60;;;;;;;;;;5035347;28;20377;-86
2021/07/15 11:04:22;;;;;;;3.65;2.65;;;;;;;;;;5035330;28;20048;-86
2021/07/15 11:06:50;;;;;;;5.35;2.58;;;;;;;;;;5034394;28;20071;-87
2021/07/15 11:09:36;;;;;;;4.82;2.05;;;;;;;;;;5035333;28;20017;-85
2021/07/15 11:12:04;;;;;;;3.33;2.90;;;;;;;;;;5035283;28;20075;-85
2021/07/15 11:14:41;;;;;;;4.75;2.33;;;;;;;;;;5035473;28;20021;-85
2021/07/15 11:17:43;;;;;;;5.57;2.58;;;;;;;;;;5034401;28;20025;-86
2021/07/15 11:20:10;;;;;;;5.85;2.67;;;;;;;;;;5014079;28;20389;-86
2021/07/15 11:22:45;;;;;;;3.58;2.50;;;;;;;;;;5035624;28;20061;-86
2021/07/15 11:25:35;;;;;;;7.80;2.20;;;;;;;;;;5034334;28;20033;-86
2021/07/15 11:28:15;;;;;;;6.13;1.25;;;;;;;;;;5035773;28;20051;-85
2021/07/15 11:31:01;;;;;;;5.40;0.68;;;;;;;;;;5035717;28;20385;-85
2021/07/15 11:33:27;;;;;;;3.25;2.45;;;;;;;;;;5035887;28;20032;-85
2021/07/15 11:35:52;;;;;;;5.78;2.15;;;;;;;;;;5035260;28;20100;-85
2021/07/15 11:38:28;;;;;;;5.80;1.50;;;;;;;;;;5035297;28;20029;-85
2021/07/15 11:40:54;;;;;;;8.30;3.63;;;;;;;;;;5035273;28;20032;-86
2021/07/15 11:43:29;;;;;;;3.22;2.22;;;;;;;;;;5033725;28;20485;-87
2021/07/15 11:46:09;;;;;;;4.40;2.72;;;;;;;;;;5035329;28;20040;-90
2021/07/15 11:48:43;;;;;;;6.07;2.90;;;;;;;;;;5035586;28;20032;-89
2021/07/15 11:51:36;;;;;;;4.10;0.60;;;;;;;;;;5035350;28;20087;-90
2021/07/15 11:54:18;;;;;;;3.92;1.38;;;;;;;;;;5034904;28;20017;-90
2021/07/15 11:56:58;;;;;;;5.85;2.45;;;;;;;;;;5035019;28;20025;-91
2021/07/15 11:59:37;;;;;;;4.03;1.15;;;;;;;;;;5033782;28;20025;-88
2021/07/15 12:02:21;;;;;;;5.03;2.20;;;;;;;;;;5035134;28;20034;-88
2021/07/15 12:05:05;;;;;;;12.68;3.05;;;;;;;;;;5033715;28;20053;-89
2021/07/15 12:07:31;;;;;;;3.10;0.63;;;;;;;;;;5035464;28;20041;-88
2021/07/15 12:09:58;;;;;;;5.55;2.90;;;;;;;;;;5035340;28;20132;-89
2021/07/15 12:12:24;;;;;;;4.70;2.60;;;;;;;;;;5035120;28;20026;-88
2021/07/15 12:14:54;;;;;;;6.63;3.08;;;;;;;;;;5054010;22;20056;-90
2021/07/15 12:17:20;;;;;;;38.33;16.52;;;;;;;;;;5037470;28;20037;-90
2021/07/15 12:19:56;;;;;;;9.57;3.80;;;;;;;;;;5036857;28;20024;-88
2021/07/15 12:22:23;;;;;;;8.23;3.67;;;;;;;;;;5037166;28;20052;-88
2021/07/15 12:24:52;;;;;;;3.30;2.65;;;;;;;;;;5054642;28;20025;-89
2021/07/15 12:27:21;;;;;;;4.10;2.78;;;;;;;;;;5036590;28;20053;-87
2021/07/15 12:29:59;;;;;;;3.88;1.90;;;;;;;;;;5037002;28;20025;-87
2021/07/15 12:32:26;;;;;;;4.78;1.15;;;;;;;;;;5037155;28;20021;-88
2021/07/15 12:34:52;;;;;;;7.95;2.50;;;;;;;;;;5036559;28;20025;-90
2021/07/15 12:37:19;;;;;;;3.45;2.40;;;;;;;;;;5054273;28;20032;-91
2021/07/15 12:39:57;;;;;;;3.55;2.42;;;;;;;;;;5036156;28;20036;-87
2021/07/15 12:42:23;;;;;;;5.03;2.85;;;;;;;;;;5054169;28;20021;-87
2021/07/15 12:44:48;;;;;;;5.13;0.50;;;;;;;;;;5036065;28;20048;-86
2021/07/15 12:47:14;;;;;;;4.97;0.40;;;;;;;;;;5054158;28;20079;-86
2021/07/15 12:49:39;;;;;;;6.45;3.55;;;;;;;;;;5053851;28;20358;-86
2021/07/15 12:52:06;;;;;;;8.48;2.83;;;;;;;;;;5054228;28;20028;-86
2021/07/15 12:54:38;;;;;;;6.75;0.57;;;;;;;;;;5053739;28;20166;-85
2021/07/15 12:57:12;;;;;;;5.00;2.25;;;;;;;;;;5054424;28;20069;-86
2021/07/15 12:59:40;;;;;;;4.13;3.53;;;;;;;;;;5053726;28;20021;-87
2021/07/15 13:02:06;;;;;;;3.63;2.85;;;;;;;;;;5053776;28;20017;-86
2021/07/15 13:04:35;;;;;;;4.65;2.92;;;;;;;;;;5053615;28;20457;-86
2021/07/15 13:07:10;;;;;;;5.85;2.53;;;;;;;;;;5053602;28;20039;-87
2021/07/15 13:15:34;;;;;;;6.10;3.38;;;;;;;;;;5919055;22;20059;-92
2021/07/15 13:44:29;;;;;;;6.45;2.80;;;;;;;;;;5021689;22;20069;-89
2021/07/15 13:47:07;;;;;;;9.40;2.65;;;;;;;;;;4996747;28;20037;-91
2021/07/15 13:49:38;;;;;;;6.20;3.00;;;;;;;;;;4997195;28;20030;-91
2021/07/15 13:52:13;;;;;;;3.63;2.58;;;;;;;;;;4996537;28;20073;-87
2021/07/15 13:54:39;;;;;;;3.90;0.68;;;;;;;;;;4996433;28;20457;-87
2021/07/15 13:57:10;;;;;;;7.88;3.33;;;;;;;;;;5013556;28;20018;-87
2021/07/15 13:59:38;;;;;;;5.57;2.85;;;;;;;;;;4995929;28;20030;-86
2021/07/15 14:02:12;;;;;;;5.07;1.98;;;;;;;;;;5013702;28;20018;-87
2021/07/15 14:04:45;;;;;;;3.05;2.03;;;;;;;;;;4995891;28;20113;-88
2021/07/15 14:07:14;;;;;;;4.13;2.88;;;;;;;;;;5013580;28;20109;-88
2021/07/15 14:10:10;;;;;;;8.35;2.97;;;;;;;;;;4997794;28;20030;-89
2021/07/15 14:12:38;;;;;;;5.53;1.17;;;;;;;;;;4996163;28;20026;-88
2021/07/15 14:15:05;;;;;;;6.88;0.75;;;;;;;;;;4995946;28;20386;-88
2021/07/15 14:17:30;;;;;;;5.50;2.58;;;;;;;;;;5013840;28;20109;-87
2021/07/15 14:19:56;;;;;;;3.22;0.95;;;;;;;;;;5014232;28;20458;-88
2021/07/15 14:22:23;;;;;;;9.27;0.85;;;;;;;;;;5016989;28;20029;-88
2021/07/15 14:24:50;;;;;;;2.53;0.80;;;;;;;;;;4999405;28;20049;-87
2021/07/15 14:27:17;;;;;;;2.58;1.40;;;;;;;;;;5016876;28;20037;-87
2021/07/15 14:29:45;;;;;;;4.43;3.00;;;;;;;;;;4999935;28;20026;-87
2021/07/15 14:32:11;;;;;;;6.13;2.53;;;;;;;;;;5016998;28;20100;-88
2021/07/15 14:34:37;;;;;;;3.58;2.83;;;;;;;;;;5016807;28;20036;-86
2021/07/15 14:37:06;;;;;;;5.53;2.70;;;;;;;;;;5000082;28;20033;-88
2021/07/15 14:39:50;;;;;;;8.88;2.75;;;;;;;;;;5000396;28;20076;-89
2021/07/15 14:42:25;;;;;;;5.60;2.70;;;;;;;;;;5000229;28;20026;-87
2021/07/15 14:45:12;;;;;;;6.35;2.75;;;;;;;;;;5000819;28;20042;-90
2021/07/15 14:47:41;;;;;;;5.95;3.03;;;;;;;;;;5018911;28;20045;-90
2021/07/15 14:50:09;;;;;;;4.90;1.73;;;;;;;;;;5002984;28;20034;-88
2021/07/15 14:52:35;;;;;;;6.63;3.40;;;;;;;;;;5000242;28;20024;-90
2021/07/15 14:55:03;;;;;;;5.75;2.25;;;;;;;;;;5000101;28;20034;-88
2021/07/15 14:57:39;;;;;;;;;;;;;;;;;;;;;
2021/07/15 15:00:12;;;;;;;11.10;2.95;;;;;;;;;;5018410;28;20472;-91
2021/07/15 15:03:04;;;;;;;6.35;2.58;;;;;;;;;;5000927;28;20040;-87
2021/07/15 15:05:29;;;;;;;5.78;2.17;;;;;;;;;;5018079;28;20037;-89
2021/07/15 15:10:45;;;;;;;9.35;3.10;;;;;;;;;;5003730;28;20379;-93
2021/07/15 15:13:14;;;;;;;6.35;3.15;;;;;;;;;;5002568;28;20029;-91
2021/07/15 15:15:50;;;;;;;;;;;;;;;;;;;;;
2021/07/15 15:18:31;;;;;;;;;;;;;;;;;;;;;
2021/07/15 15:20:58;;;;;;;9.70;3.80;;;;;;;;;;5015990;28;20037;-90
2021/07/15 15:23:39;;;;;;;5.20;3.17;;;;;;;;;;5000833;28;20034;-89
2021/07/15 15:26:14;;;;;;;8.07;2.97;;;;;;;;;;5017518;28;20025;-89
2021/07/15 15:28:43;;;;;;;6.30;4.18;;;;;;;;;;5018475;28;20026;-88
2021/07/15 15:31:18;;;;;;;5.45;3.10;;;;;;;;;;5017959;28;20037;-91
2021/07/15 15:33:46;;;;;;;9.75;1.42;;;;;;;;;;5016853;28;20520;-89
2021/07/15 15:36:12;;;;;;;5.05;2.25;;;;;;;;;;5004261;28;20508;-89